Time;durP1;ratioP1;P1;durP2;ratioP2;P2;SDS_P1;SDS_P2;PMS_P1;PMS_P2;Temp;Humidity;BMP_temperature;BMP_pressure;BME280_temperature;BME280_humidity;BME280_pressure;Samples;Min_cycle;Max_cycle;Signal;HPM_P1;HPM_P2
2021/09/12 00:01:05;;;;;;;8.47;4.70;;;18.00;56.30;;;;;;5015117;28;20687;-86
2021/09/12 00:03:31;;;;;;;9.13;4.90;;;18.10;53.50;;;;;;4998979;28;20564;-87
2021/09/12 00:05:57;;;;;;;10.20;5.03;;;18.20;52.10;;;;;;5002051;28;20177;-87
2021/09/12 00:08:22;;;;;;;8.63;4.50;;;18.00;54.70;;;;;;5000275;28;20261;-86
2021/09/12 00:10:48;;;;;;;6.93;4.20;;;18.00;55.90;;;;;;5017415;28;20176;-86
2021/09/12 00:13:14;;;;;;;10.70;4.83;;;17.90;56.40;;;;;;4998577;28;20921;-86
2021/09/12 00:15:40;;;;;;;9.03;4.30;;;17.90;56.40;;;;;;4998637;28;20179;-87
2021/09/12 00:18:06;;;;;;;7.37;4.07;;;17.80;55.80;;;;;;4998937;28;20166;-87
2021/09/12 00:20:31;;;;;;;7.27;4.23;;;17.90;55.70;;;;;;5000968;28;20182;-84
2021/09/12 00:22:57;;;;;;;8.50;4.03;;;17.80;55.40;;;;;;5028578;28;20246;-84
2021/09/12 00:25:23;;;;;;;8.57;4.30;;;17.90;55.90;;;;;;5021655;28;20187;-86
2021/09/12 00:27:49;;;;;;;8.30;4.50;;;17.80;56.40;;;;;;4999298;28;20178;-86
2021/09/12 00:30:14;;;;;;;10.07;4.50;;;17.80;55.60;;;;;;5026467;28;20171;-86
2021/09/12 00:32:45;;;;;;;6.80;3.93;;;17.90;55.00;;;;;;5006117;28;20602;-87
2021/09/12 00:35:13;;;;;;;8.77;4.63;;;17.80;53.10;;;;;;5000072;28;20175;-87
2021/09/12 00:37:39;;;;;;;8.33;4.77;;;17.70;57.20;;;;;;5000211;28;20283;-87
2021/09/12 00:40:07;;;;;;;6.30;4.60;;;17.50;58.20;;;;;;5000039;28;20180;-86
2021/09/12 00:42:35;;;;;;;8.57;4.70;;;17.60;58.20;;;;;;5032185;28;20222;-86
2021/09/12 00:45:02;;;;;;;9.23;4.53;;;17.50;60.30;;;;;;5020775;28;20270;-85
2021/09/12 00:47:28;;;;;;;6.57;4.30;;;17.70;60.20;;;;;;5020696;28;20259;-86
2021/09/12 00:49:54;;;;;;;8.67;4.87;;;17.50;60.30;;;;;;5017067;28;20257;-86
2021/09/12 00:52:23;;;;;;;6.40;4.30;;;17.50;60.40;;;;;;5003784;28;20261;-84
2021/09/12 00:54:50;;;;;;;6.10;4.33;;;17.40;61.10;;;;;;5003739;28;20204;-85
2021/09/12 00:57:15;;;;;;;6.33;4.47;;;17.40;60.40;;;;;;5004156;28;20652;-85
2021/09/12 00:59:43;;;;;;;8.93;4.43;;;17.50;57.90;;;;;;5000319;28;20179;-87
2021/09/12 01:02:10;;;;;;;8.27;4.60;;;17.60;57.40;;;;;;5000272;28;20205;-86
2021/09/12 01:04:37;;;;;;;7.33;4.57;;;17.60;57.50;;;;;;4999410;28;20212;-87
2021/09/12 01:07:08;;;;;;;8.13;4.17;;;17.50;55.90;;;;;;4998421;28;20669;-86
2021/09/12 01:09:38;;;;;;;7.43;3.97;;;17.50;57.60;;;;;;4998086;28;20186;-87
2021/09/12 01:12:09;;;;;;;9.43;4.23;;;17.40;59.80;;;;;;4998796;28;20595;-86
2021/09/12 01:14:36;;;;;;;8.77;4.53;;;17.40;59.50;;;;;;5000041;28;20189;-86
2021/09/12 01:17:02;;;;;;;7.00;3.70;;;17.10;63.40;;;;;;4997506;28;20244;-85
2021/09/12 01:19:29;;;;;;;8.80;4.17;;;17.00;65.00;;;;;;4997690;28;20174;-85
2021/09/12 01:21:58;;;;;;;6.67;4.20;;;16.90;68.20;;;;;;5014597;28;20173;-87
2021/09/12 01:24:25;;;;;;;7.57;3.77;;;16.90;68.40;;;;;;4997082;28;20620;-86
2021/09/12 01:26:51;;;;;;;8.37;4.13;;;16.70;71.60;;;;;;4997166;28;20217;-86
2021/09/12 01:29:16;;;;;;;10.17;4.37;;;16.70;73.50;;;;;;4997493;28;20182;-85
2021/09/12 01:31:43;;;;;;;7.97;4.00;;;16.70;74.20;;;;;;4997418;28;20190;-85
2021/09/12 01:34:09;;;;;;;6.67;3.90;;;16.60;77.50;;;;;;4997834;28;20240;-87
2021/09/12 01:36:34;;;;;;;7.17;4.50;;;16.50;79.00;;;;;;4999896;28;20193;-85
2021/09/12 01:39:00;;;;;;;8.50;4.30;;;16.60;81.20;;;;;;5003319;28;20549;-85
2021/09/12 01:41:26;;;;;;;7.80;4.13;;;16.50;83.00;;;;;;5003192;28;20197;-85
2021/09/12 01:43:55;;;;;;;9.17;4.03;;;16.50;82.60;;;;;;5003244;28;20214;-85
2021/09/12 01:46:21;;;;;;;7.03;4.40;;;16.50;84.00;;;;;;5001907;28;20174;-85
2021/09/12 01:48:48;;;;;;;8.03;3.77;;;16.50;82.60;;;;;;5002038;28;20182;-86
2021/09/12 01:51:14;;;;;;;8.80;4.57;;;16.60;83.10;;;;;;5001501;28;20175;-86
2021/09/12 01:53:40;;;;;;;7.57;5.23;;;16.30;85.60;;;;;;5001447;28;20181;-86
2021/09/12 01:56:07;;;;;;;6.07;4.17;;;16.20;88.50;;;;;;5000990;28;20174;-86
2021/09/12 01:58:33;;;;;;;11.23;4.80;;;16.20;91.00;;;;;;5001273;28;20171;-85
2021/09/12 02:00:58;;;;;;;7.93;4.70;;;16.20;91.50;;;;;;5000724;28;20669;-86
2021/09/12 02:03:24;;;;;;;8.53;4.77;;;16.20;92.30;;;;;;5000757;28;20289;-86
2021/09/12 02:05:51;;;;;;;7.57;4.87;;;16.20;92.10;;;;;;5000851;28;20244;-85
2021/09/12 02:08:17;;;;;;;6.37;5.17;;;16.10;92.10;;;;;;5000677;28;20273;-86
2021/09/12 02:10:43;;;;;;;7.63;5.03;;;16.40;91.80;;;;;;5000781;28;20598;-85
2021/09/12 02:13:11;;;;;;;10.73;5.20;;;16.30;91.50;;;;;;5001881;28;20185;-86
2021/09/12 02:15:37;;;;;;;11.03;5.40;;;16.20;91.50;;;;;;5006780;28;20209;-85
2021/09/12 02:18:03;;;;;;;10.17;5.40;;;16.10;92.00;;;;;;5003098;28;20185;-86
2021/09/12 02:20:29;;;;;;;10.37;5.57;;;16.10;92.50;;;;;;5000585;28;20182;-87
2021/09/12 02:22:55;;;;;;;12.43;5.83;;;16.00;93.10;;;;;;5001405;28;20178;-86
2021/09/12 02:25:21;;;;;;;7.80;5.70;;;16.00;93.30;;;;;;5001197;28;20221;-86
2021/09/12 02:27:46;;;;;;;11.60;6.00;;;16.00;93.20;;;;;;5000640;28;20174;-86
2021/09/12 02:30:12;;;;;;;10.27;5.83;;;15.90;93.60;;;;;;5001056;28;20217;-86
2021/09/12 02:32:38;;;;;;;13.13;6.43;;;15.90;93.80;;;;;;5001062;28;20657;-85
2021/09/12 02:35:05;;;;;;;11.57;6.40;;;15.90;93.80;;;;;;5001076;28;20174;-84
2021/09/12 02:37:30;;;;;;;12.97;7.90;;;15.90;94.10;;;;;;5001448;28;20261;-85
2021/09/12 02:39:56;;;;;;;11.30;8.67;;;15.90;94.00;;;;;;5018934;28;20724;-86
2021/09/12 02:42:22;;;;;;;13.10;7.43;;;15.70;94.20;;;;;;5001318;28;20221;-85
2021/09/12 02:44:48;;;;;;;11.37;6.40;;;15.80;94.70;;;;;;5001258;28;20237;-85
2021/09/12 02:47:13;;;;;;;10.73;6.03;;;15.70;95.10;;;;;;5001264;28;20178;-85
2021/09/12 02:49:39;;;;;;;11.73;6.60;;;15.80;95.60;;;;;;5000701;28;20186;-85
2021/09/12 02:52:05;;;;;;;11.57;6.17;;;15.60;96.20;;;;;;5019576;28;20189;-86
2021/09/12 02:54:31;;;;;;;8.47;5.83;;;15.60;96.30;;;;;;5018667;28;20181;-85
2021/09/12 02:56:56;;;;;;;9.93;5.43;;;15.60;96.20;;;;;;5019710;28;20178;-84
2021/09/12 02:59:22;;;;;;;10.60;5.67;;;15.70;95.80;;;;;;5004313;28;20193;-85
2021/09/12 03:01:48;;;;;;;10.77;6.17;;;15.70;95.40;;;;;;5003841;28;20206;-85
2021/09/12 03:04:13;;;;;;;12.10;6.00;;;15.60;95.60;;;;;;5011966;28;20214;-87
2021/09/12 03:06:39;;;;;;;10.07;5.57;;;15.60;96.10;;;;;;5021404;28;20683;-86
2021/09/12 03:09:05;;;;;;;10.47;4.90;;;15.40;97.30;;;;;;5002655;28;20178;-84
2021/09/12 03:11:30;;;;;;;10.43;5.40;;;15.30;97.80;;;;;;5008949;28;20170;-84
2021/09/12 03:13:56;;;;;;;10.23;5.90;;;15.20;98.50;;;;;;5033326;28;20177;-84
2021/09/12 03:16:23;;;;;;;8.37;5.07;;;15.20;98.90;;;;;;5023334;28;20198;-84
2021/09/12 03:18:50;;;;;;;11.23;5.50;;;15.20;98.90;;;;;;5018760;28;20185;-85
2021/09/12 03:21:16;;;;;;;9.80;5.20;;;15.30;98.80;;;;;;5009480;28;20174;-85
2021/09/12 03:23:45;;;;;;;6.50;5.30;;;15.50;98.40;;;;;;5006391;28;20242;-85
2021/09/12 03:26:11;;;;;;;8.20;4.93;;;15.70;97.80;;;;;;5013094;28;20227;-85
2021/09/12 03:28:38;;;;;;;8.93;5.70;;;15.60;97.00;;;;;;5003894;28;20173;-85
2021/09/12 03:31:04;;;;;;;10.23;5.33;;;15.50;96.20;;;;;;5022248;28;20174;-84
2021/09/12 03:33:31;;;;;;;7.77;5.07;;;15.50;96.60;;;;;;5005275;28;20180;-86
2021/09/12 03:35:57;;;;;;;7.17;5.00;;;15.50;96.70;;;;;;5010716;28;20175;-86
2021/09/12 03:38:24;;;;;;;9.93;4.70;;;15.50;96.30;;;;;;5021550;28;20221;-85
2021/09/12 03:40:50;;;;;;;7.60;4.93;;;15.50;96.10;;;;;;5012345;28;20210;-86
2021/09/12 03:43:16;;;;;;;8.57;5.20;;;15.60;95.80;;;;;;5023846;28;20188;-85
2021/09/12 03:45:49;;;;;;;9.80;5.60;;;15.60;95.80;;;;;;5002374;28;20183;-86
2021/09/12 03:48:15;;;;;;;7.13;4.73;;;15.60;95.10;;;;;;5018557;28;20164;-86
2021/09/12 03:50:40;;;;;;;7.30;5.10;;;15.50;95.70;;;;;;5001762;28;20314;-85
2021/09/12 03:53:06;;;;;;;8.90;4.93;;;15.30;96.80;;;;;;5011404;28;20179;-84
2021/09/12 03:55:32;;;;;;;7.43;4.67;;;15.40;97.10;;;;;;5028606;28;20267;-85
2021/09/12 03:57:57;;;;;;;8.97;4.77;;;15.30;97.30;;;;;;5008969;28;20281;-84
2021/09/12 04:00:23;;;;;;;8.27;4.70;;;15.20;97.70;;;;;;5012047;28;20181;-85
2021/09/12 04:02:49;;;;;;;10.90;5.00;;;15.30;97.60;;;;;;5034425;28;20186;-85
2021/09/12 04:05:14;;;;;;;11.27;5.47;;;15.30;97.00;;;;;;5019320;28;20226;-84
2021/09/12 04:07:40;;;;;;;7.00;4.80;;;15.40;96.70;;;;;;5018959;28;20214;-86
2021/09/12 04:10:07;;;;;;;12.17;4.93;;;15.30;96.90;;;;;;5017326;28;20178;-85
2021/09/12 04:12:33;;;;;;;8.53;5.07;;;15.20;97.10;;;;;;5015855;28;20188;-85
2021/09/12 04:14:59;;;;;;;11.80;4.90;;;15.20;97.00;;;;;;5032836;28;20238;-85
2021/09/12 04:17:25;;;;;;;10.03;5.13;;;15.30;97.40;;;;;;5016750;28;20174;-83
2021/09/12 04:19:50;;;;;;;9.20;5.10;;;15.30;97.70;;;;;;5016517;28;20283;-84
2021/09/12 04:22:16;;;;;;;11.23;4.83;;;15.20;98.00;;;;;;5016536;28;20216;-84
2021/09/12 04:24:42;;;;;;;8.80;4.67;;;15.20;97.80;;;;;;5015584;28;20217;-84
2021/09/12 04:27:09;;;;;;;9.83;4.97;;;15.20;97.60;;;;;;5020946;28;20158;-85
2021/09/12 04:29:34;;;;;;;9.70;5.37;;;15.30;98.10;;;;;;5038393;28;20183;-84
2021/09/12 04:32:00;;;;;;;9.70;5.33;;;15.20;97.80;;;;;;5021729;28;20190;-85
2021/09/12 04:34:26;;;;;;;7.60;4.83;;;15.30;97.50;;;;;;5012486;28;20194;-86
2021/09/12 04:36:52;;;;;;;8.30;4.37;;;15.20;98.00;;;;;;5000403;28;20180;-86
2021/09/12 04:39:17;;;;;;;5.77;4.27;;;15.10;98.40;;;;;;5016506;28;20628;-85
2021/09/12 04:41:43;;;;;;;7.80;5.23;;;15.00;98.80;;;;;;5015583;28;20232;-86
2021/09/12 04:44:12;;;;;;;7.23;5.03;;;15.30;98.80;;;;;;4999105;28;20279;-86
2021/09/12 04:46:40;;;;;;;9.67;4.87;;;15.10;98.60;;;;;;5017784;28;20175;-86
2021/09/12 04:49:08;;;;;;;10.37;5.50;;;15.10;98.60;;;;;;5033316;28;20173;-85
2021/09/12 04:51:34;;;;;;;10.07;5.27;;;15.10;99.40;;;;;;5026834;28;20212;-85
2021/09/12 04:53:59;;;;;;;8.10;4.73;;;15.00;99.60;;;;;;5001416;28;20190;-86
2021/09/12 04:56:25;;;;;;;11.00;5.60;;;15.00;99.60;;;;;;5000500;28;20278;-87
2021/09/12 04:58:52;;;;;;;11.77;5.03;;;15.00;99.80;;;;;;5000389;28;20637;-86
2021/09/12 05:01:18;;;;;;;9.60;4.83;;;15.00;99.60;;;;;;4999531;28;20641;-86
2021/09/12 05:03:44;;;;;;;12.93;5.40;;;15.10;99.60;;;;;;5017127;28;20204;-86
2021/09/12 05:06:10;;;;;;;9.43;4.83;;;15.00;99.60;;;;;;5002981;28;20182;-85
2021/09/12 05:08:36;;;;;;;9.27;5.57;;;15.10;99.30;;;;;;5000376;28;20166;-86
2021/09/12 05:11:02;;;;;;;11.47;5.40;;;15.10;99.40;;;;;;5017047;28;20221;-85
2021/09/12 05:13:28;;;;;;;12.37;5.30;;;15.20;98.80;;;;;;4997695;28;20233;-85
2021/09/12 05:15:54;;;;;;;9.23;5.30;;;15.20;98.70;;;;;;4997072;28;20174;-87
2021/09/12 05:18:20;;;;;;;8.70;5.23;;;15.30;98.60;;;;;;5014347;28;20260;-85
2021/09/12 05:20:48;;;;;;;8.20;4.73;;;15.20;99.10;;;;;;5014521;28;20174;-86
2021/09/12 05:23:13;;;;;;;12.70;5.47;;;15.30;99.00;;;;;;4997236;28;20183;-85
2021/09/12 05:25:39;;;;;;;10.87;5.40;;;15.10;99.30;;;;;;4997631;28;20690;-86
2021/09/12 05:28:05;;;;;;;8.13;4.73;;;15.10;99.60;;;;;;4997377;28;20175;-86
2021/09/12 05:30:31;;;;;;;11.03;5.03;;;15.20;99.60;;;;;;4997679;28;20665;-84
2021/09/12 05:32:57;;;;;;;8.03;5.00;;;15.10;99.70;;;;;;4998801;28;20677;-87
2021/09/12 05:35:26;;;;;;;9.90;4.83;;;15.20;99.60;;;;;;4999238;28;20189;-85
2021/09/12 05:37:52;;;;;;;8.20;4.50;;;15.20;99.20;;;;;;4998394;28;20275;-86
2021/09/12 05:40:17;;;;;;;11.03;5.10;;;15.30;99.40;;;;;;4997257;28;20733;-85
2021/09/12 05:42:44;;;;;;;9.83;4.73;;;15.20;99.60;;;;;;4999394;28;20272;-86
2021/09/12 05:45:10;;;;;;;9.93;5.37;;;15.20;99.40;;;;;;4998180;28;20217;-86
2021/09/12 05:47:36;;;;;;;9.03;5.30;;;15.20;99.20;;;;;;4996840;28;20174;-86
2021/09/12 05:50:03;;;;;;;10.53;6.07;;;15.30;99.30;;;;;;4997039;28;20217;-86
2021/09/12 05:52:29;;;;;;;13.27;5.87;;;15.20;99.50;;;;;;4996909;28;20205;-86
2021/09/12 05:54:55;;;;;;;8.30;5.37;;;15.30;99.40;;;;;;4997309;28;20544;-86
2021/09/12 05:57:21;;;;;;;9.07;5.50;;;15.30;99.20;;;;;;5014390;28;20638;-86
2021/09/12 05:59:46;;;;;;;10.87;5.47;;;15.30;99.20;;;;;;5015093;28;20182;-86
2021/09/12 06:02:13;;;;;;;12.17;5.23;;;15.60;98.60;;;;;;4997106;28;20221;-86
2021/09/12 06:04:43;;;;;;;9.57;5.30;;;15.50;98.00;;;;;;4999239;28;20210;-84
2021/09/12 06:07:10;;;;;;;8.63;5.27;;;15.80;98.10;;;;;;5002146;28;20265;-87
2021/09/12 06:09:36;;;;;;;10.53;5.10;;;15.70;97.10;;;;;;5005652;28;20261;-86
2021/09/12 06:12:04;;;;;;;11.37;5.80;;;15.90;96.60;;;;;;5015321;28;20217;-86
2021/09/12 06:14:34;;;;;;;8.40;5.70;;;15.80;96.30;;;;;;5001515;28;20657;-86
2021/09/12 06:17:04;;;;;;;13.47;5.57;;;16.00;95.90;;;;;;4997738;28;20209;-86
2021/09/12 06:19:33;;;;;;;9.73;5.20;;;16.00;95.00;;;;;;4997272;28;20182;-86
2021/09/12 06:21:59;;;;;;;11.33;5.43;;;16.10;93.90;;;;;;4997446;28;20582;-87
2021/09/12 06:24:24;;;;;;;8.40;4.80;;;16.10;93.90;;;;;;4999893;28;20313;-87
2021/09/12 06:26:50;;;;;;;8.43;4.57;;;16.20;93.50;;;;;;5001509;28;20618;-87
2021/09/12 06:29:15;;;;;;;8.33;4.97;;;16.40;93.20;;;;;;5004235;28;20317;-85
2021/09/12 06:31:41;;;;;;;8.93;4.43;;;16.40;92.50;;;;;;5006437;28;20194;-87
2021/09/12 06:34:07;;;;;;;8.93;4.87;;;16.30;92.90;;;;;;5005819;28;20634;-85
2021/09/12 06:36:32;;;;;;;10.00;4.60;;;16.20;93.20;;;;;;5001827;28;20589;-86
2021/09/12 06:38:58;;;;;;;9.03;4.30;;;16.30;93.30;;;;;;5002786;28;20261;-87
2021/09/12 06:41:23;;;;;;;8.20;4.40;;;16.30;93.30;;;;;;5005115;28;20582;-87
2021/09/12 06:43:49;;;;;;;8.30;4.00;;;16.40;92.60;;;;;;5025257;28;20198;-85
2021/09/12 06:46:15;;;;;;;8.83;4.50;;;16.50;91.90;;;;;;5007377;28;20185;-86
2021/09/12 06:48:40;;;;;;;6.10;4.30;;;16.50;92.10;;;;;;5008127;28;20246;-88
2021/09/12 06:51:06;;;;;;;8.17;4.27;;;16.50;92.30;;;;;;5025509;28;20181;-85
2021/09/12 06:53:33;;;;;;;6.37;4.00;;;16.50;92.30;;;;;;5004027;28;20193;-86
2021/09/12 06:56:02;;;;;;;7.93;4.47;;;16.40;92.30;;;;;;5002127;28;20352;-85
2021/09/12 06:58:28;;;;;;;11.00;4.67;;;16.30;92.90;;;;;;5008359;28;20178;-88
2021/09/12 07:00:53;;;;;;;7.57;4.23;;;16.50;93.10;;;;;;5010941;28;20559;-88
2021/09/12 07:03:19;;;;;;;9.20;3.90;;;16.60;92.90;;;;;;5009199;28;20661;-86
2021/09/12 07:05:44;;;;;;;7.97;4.47;;;16.50;92.60;;;;;;5007345;28;20182;-86
2021/09/12 07:08:10;;;;;;;7.63;4.20;;;16.60;92.90;;;;;;5008150;28;20330;-88
2021/09/12 07:10:36;;;;;;;10.73;4.50;;;16.70;92.30;;;;;;5007358;28;20174;-86
2021/09/12 07:13:01;;;;;;;9.30;3.30;;;16.50;92.40;;;;;;5010944;28;20627;-87
2021/09/12 07:15:27;;;;;;;9.00;4.00;;;16.70;91.00;;;;;;5006229;28;20205;-88
2021/09/12 07:17:54;;;;;;;7.23;3.83;;;16.90;90.10;;;;;;5003500;28;20177;-87
2021/09/12 07:20:20;;;;;;;8.30;4.30;;;16.90;88.20;;;;;;5004463;28;20240;-88
2021/09/12 07:22:46;;;;;;;12.10;4.07;;;17.10;85.90;;;;;;5001073;28;20626;-88
2021/09/12 07:25:13;;;;;;;7.73;4.00;;;17.20;84.80;;;;;;5002052;28;20214;-87
2021/09/12 07:27:39;;;;;;;9.23;3.90;;;17.20;83.00;;;;;;5002272;28;20178;-87
2021/09/12 07:30:06;;;;;;;8.57;3.67;;;17.30;79.40;;;;;;5001618;28;20175;-89
2021/09/12 07:32:31;;;;;;;8.90;4.30;;;17.30;78.70;;;;;;5008984;28;20174;-86
2021/09/12 07:34:57;;;;;;;10.00;4.30;;;17.30;79.60;;;;;;5013639;28;20186;-86
2021/09/12 07:37:23;;;;;;;6.23;4.33;;;17.20;83.50;;;;;;5009532;28;20498;-86
2021/09/12 07:39:50;;;;;;;10.17;4.43;;;17.30;81.90;;;;;;5000660;28;20629;-87
2021/09/12 07:42:16;;;;;;;8.60;4.57;;;17.40;81.90;;;;;;5016481;28;20190;-86
2021/09/12 07:44:42;;;;;;;10.17;4.20;;;17.30;83.20;;;;;;5000096;28;20205;-87
2021/09/12 07:47:08;;;;;;;8.57;4.63;;;17.30;85.20;;;;;;5000362;28;20178;-89
2021/09/12 07:49:33;;;;;;;9.77;4.13;;;17.30;81.80;;;;;;5017564;28;20548;-87
2021/09/12 07:52:00;;;;;;;15.17;5.10;;;17.20;85.80;;;;;;4999902;28;20185;-87
2021/09/12 07:54:26;;;;;;;7.43;4.30;;;17.10;88.50;;;;;;4999986;28;20240;-87
2021/09/12 07:56:51;;;;;;;8.83;4.73;;;17.20;87.90;;;;;;5000181;28;20194;-87
2021/09/12 07:59:27;;;;;;;;;;;;;;;;;;;;;
2021/09/12 08:01:54;;;;;;;9.00;4.90;;;17.20;89.30;;;;;;5018631;28;20261;-86
2021/09/12 08:04:20;;;;;;;10.83;4.37;;;17.30;88.10;;;;;;5001184;28;20787;-91
2021/09/12 08:06:47;;;;;;;7.40;4.93;;;17.30;87.40;;;;;;5019787;28;20165;-89
2021/09/12 08:09:14;;;;;;;11.53;4.87;;;17.30;87.80;;;;;;5020378;28;20174;-87
2021/09/12 08:11:40;;;;;;;8.13;4.53;;;17.40;88.20;;;;;;5003924;28;20225;-92
2021/09/12 08:14:08;;;;;;;7.30;4.40;;;17.30;89.60;;;;;;5005555;28;20232;-92
2021/09/12 08:16:39;;;;;;;6.60;4.73;;;17.30;88.50;;;;;;5021744;28;20168;-88
2021/09/12 08:19:07;;;;;;;14.00;4.90;;;17.30;88.80;;;;;;5007159;28;20178;-92
2021/09/12 08:21:36;;;;;;;10.40;4.80;;;17.40;88.40;;;;;;5003998;28;20621;-92
2021/09/12 08:24:05;;;;;;;8.60;4.87;;;17.50;88.50;;;;;;5022162;28;20237;-88
2021/09/12 08:26:31;;;;;;;7.70;5.50;;;17.60;85.90;;;;;;5002685;28;20178;-90
2021/09/12 08:28:56;;;;;;;10.67;5.40;;;17.60;86.90;;;;;;5001980;28;20239;-88
2021/09/12 08:31:22;;;;;;;8.30;4.97;;;17.80;83.90;;;;;;5014018;28;20175;-90
2021/09/12 08:33:52;;;;;;;10.10;5.57;;;17.90;83.50;;;;;;5014775;28;20205;-87
2021/09/12 08:36:18;;;;;;;9.47;5.53;;;18.10;75.10;;;;;;5014563;28;20206;-86
2021/09/12 08:38:46;;;;;;;9.43;5.23;;;18.20;72.80;;;;;;5014894;28;20184;-87
2021/09/12 08:41:13;;;;;;;11.63;6.30;;;18.30;73.10;;;;;;5022845;28;20194;-84
2021/09/12 08:43:41;;;;;;;8.33;5.33;;;18.30;73.50;;;;;;5002238;28;20225;-83
2021/09/12 08:46:09;;;;;;;9.07;5.97;;;18.40;70.10;;;;;;5018251;28;20629;-87
2021/09/12 08:48:36;;;;;;;12.77;6.30;;;18.50;68.70;;;;;;4999031;28;20264;-85
2021/09/12 08:51:02;;;;;;;10.70;6.40;;;18.50;67.10;;;;;;4997624;28;20178;-84
2021/09/12 08:53:28;;;;;;;9.70;7.13;;;18.80;65.10;;;;;;5015126;28;20214;-85
2021/09/12 08:55:55;;;;;;;15.57;7.23;;;18.80;62.10;;;;;;4997367;28;20205;-85
2021/09/12 08:58:20;;;;;;;12.93;7.63;;;19.00;59.30;;;;;;4997904;28;20174;-85
2021/09/12 09:00:46;;;;;;;15.83;7.80;;;19.20;53.70;;;;;;5015850;28;20212;-85
2021/09/12 09:03:12;;;;;;;14.17;8.53;;;19.20;49.90;;;;;;5003563;28;20179;-86
2021/09/12 09:05:41;;;;;;;14.17;9.03;;;19.30;48.10;;;;;;5035335;28;20214;-84
2021/09/12 09:08:10;;;;;;;13.97;8.73;;;19.40;47.70;;;;;;5006266;28;20172;-86
2021/09/12 09:10:41;;;;;;;14.00;8.87;;;19.40;46.70;;;;;;5016684;28;20182;-84
2021/09/12 09:13:31;;;;;;;13.20;7.87;;;19.20;46.20;;;;;;5015158;28;20178;-85
2021/09/12 09:16:02;;;;;;;14.10;7.83;;;19.10;54.50;;;;;;4999275;28;20170;-86
2021/09/12 09:18:37;;;;;;;12.23;7.83;;;19.10;58.80;;;;;;4996740;28;20178;-86
2021/09/12 09:21:24;;;;;;;12.73;9.30;;;19.20;57.80;;;;;;5013882;28;20239;-86
2021/09/12 09:24:21;;;;;;;13.47;9.03;;;19.30;52.80;;;;;;5003483;28;20213;-84
2021/09/12 09:26:58;;;;;;;14.33;8.57;;;19.30;52.80;;;;;;5034995;28;20237;-85
2021/09/12 09:29:29;;;;;;;14.57;9.63;;;19.40;49.40;;;;;;4986582;28;20192;-86
2021/09/12 09:32:10;;;;;;;12.80;9.30;;;19.30;55.50;;;;;;5016374;28;20271;-85
2021/09/12 09:34:41;;;;;;;13.53;9.33;;;19.30;55.70;;;;;;4990695;28;20704;-86
2021/09/12 09:37:20;;;;;;;13.40;8.77;;;19.30;56.10;;;;;;4996328;28;20578;-88
2021/09/12 09:39:53;;;;;;;15.77;8.73;;;19.50;56.10;;;;;;4995772;28;20632;-85
2021/09/12 09:42:39;;;;;;;15.17;8.50;;;19.70;48.00;;;;;;4979406;28;20218;-88
2021/09/12 09:45:11;;;;;;;13.17;8.23;;;19.80;49.40;;;;;;5012517;28;20677;-84
2021/09/12 09:47:41;;;;;;;13.47;8.37;;;19.90;46.20;;;;;;5018074;28;20610;-83
2021/09/12 09:50:13;;;;;;;13.53;9.03;;;20.00;41.30;;;;;;4998781;28;20246;-82
2021/09/12 09:52:47;;;;;;;13.23;8.40;;;20.20;35.80;;;;;;5015391;28;20662;-85
2021/09/12 09:55:18;;;;;;;12.23;8.53;;;20.40;31.30;;;;;;5000936;28;20180;-90
2021/09/12 09:58:07;;;;;;;13.47;8.07;;;20.50;26.40;;;;;;4999958;28;20169;-87
2021/09/12 10:00:33;;;;;;;14.00;8.37;;;20.70;22.20;;;;;;4987242;28;20235;-88
2021/09/12 10:03:00;;;;;;;15.17;8.80;;;20.80;17.60;;;;;;4985909;28;20683;-86
2021/09/12 10:05:27;;;;;;;13.77;9.07;;;20.80;17.60;;;;;;5004763;28;20216;-88
2021/09/12 10:07:54;;;;;;;13.37;8.33;;;20.80;11.50;;;;;;5005006;28;20207;-87
2021/09/12 10:10:21;;;;;;;16.50;9.37;;;20.80;16.90;;;;;;5021985;28;20542;-84
2021/09/12 10:12:55;;;;;;;15.13;8.70;;;20.70;16.90;;;;;;5005398;28;20315;-86
2021/09/12 10:15:30;;;;;;;14.50;8.57;;;20.70;25.60;;;;;;4996109;28;20175;-88
2021/09/12 10:17:57;;;;;;;14.00;9.87;;;20.80;21.80;;;;;;4991631;28;20247;-89
2021/09/12 10:20:29;;;;;;;12.33;9.00;;;21.00;12.60;;;;;;5010975;28;20177;-87
2021/09/12 10:23:01;;;;;;;17.53;9.80;;;21.20;12.40;;;;;;5015341;28;20189;-89
2021/09/12 10:25:31;;;;;;;15.90;9.20;;;21.30;8.10;;;;;;4989665;28;20693;-90
2021/09/12 10:28:03;;;;;;;12.93;8.37;;;21.40;1.90;;;;;;4986918;28;20247;-89
2021/09/12 10:30:44;;;;;;;10.90;8.03;;;21.40;1.70;;;;;;4999100;28;20185;-87
2021/09/12 10:33:13;;;;;;;14.00;8.57;;;21.30;4.10;;;;;;5011394;28;20181;-87
2021/09/12 10:35:38;;;;;;;12.80;8.50;;;21.20;2.50;;;;;;5008425;28;20204;-87
2021/09/12 10:38:11;;;;;;;12.50;8.77;;;21.20;6.10;;;;;;4996500;28;20183;-87
2021/09/12 10:40:46;;;;;;;11.87;8.13;;;21.00;12.80;;;;;;5003753;28;20195;-84
2021/09/12 10:43:39;;;;;;;13.50;8.67;;;21.20;10.50;;;;;;5019251;28;20260;-83
2021/09/12 10:46:05;;;;;;;15.33;8.63;;;21.20;3.60;;;;;;4999539;28;20218;-86
2021/09/12 10:48:52;;;;;;;12.27;8.80;;;21.20;6.90;;;;;;5016513;28;20745;-85
2021/09/12 10:51:18;;;;;;;13.40;7.93;;;21.40;3.40;;;;;;5016360;28;20194;-87
2021/09/12 10:53:49;;;;;;;12.23;7.90;;;21.40;5.70;;;;;;5013478;28;20201;-87
2021/09/12 10:56:19;;;;;;;10.97;8.40;;;21.50;1.00;;;;;;5016076;28;20186;-89
2021/09/12 10:59:10;;;;;;;11.80;8.43;;;21.50;1.00;;;;;;5014239;28;20165;-88
2021/09/12 11:01:52;;;;;;;11.33;7.60;;;21.60;1.00;;;;;;5011679;28;20246;-85
2021/09/12 11:04:30;;;;;;;12.20;8.00;;;21.70;1.00;;;;;;5013426;28;20223;-86
2021/09/12 11:07:03;;;;;;;12.93;7.73;;;22.00;1.00;;;;;;4986657;28;20178;-89
2021/09/12 11:09:31;;;;;;;15.50;8.40;;;21.80;1.00;;;;;;5002593;28;20167;-89
2021/09/12 11:12:03;;;;;;;11.40;7.90;;;21.80;1.00;;;;;;5015156;28;20186;-89
2021/09/12 11:14:29;;;;;;;13.30;8.13;;;21.80;1.00;;;;;;5005930;28;20261;-87
2021/09/12 11:17:05;;;;;;;10.63;7.97;;;22.00;1.00;;;;;;5010963;28;20170;-88
2021/09/12 11:19:30;;;;;;;14.93;8.73;;;22.00;1.00;;;;;;5007854;28;20541;-86
2021/09/12 11:21:59;;;;;;;12.60;8.50;;;21.90;1.00;;;;;;5008601;28;20181;-86
2021/09/12 11:24:30;;;;;;;11.23;8.43;;;21.80;1.00;;;;;;5005370;28;20293;-89
2021/09/12 11:27:06;;;;;;;12.87;7.73;;;21.80;1.00;;;;;;5004750;28;20170;-92
2021/09/12 11:29:39;;;;;;;11.13;7.63;;;21.90;1.00;;;;;;5024679;28;20570;-88
2021/09/12 11:32:18;;;;;;;13.97;7.43;;;21.90;1.00;;;;;;5007290;28;20205;-88
2021/09/12 11:34:49;;;;;;;13.63;7.50;;;21.90;1.00;;;;;;5024125;28;20185;-89
2021/09/12 11:37:18;;;;;;;10.30;6.93;;;21.90;1.00;;;;;;5013571;28;20172;-88
2021/09/12 11:39:46;;;;;;;8.90;6.93;;;22.00;1.00;;;;;;5016539;28;20174;-87
2021/09/12 11:42:18;;;;;;;9.13;7.37;;;22.10;1.00;;;;;;5010679;28;20205;-86
2021/09/12 11:44:46;;;;;;;12.07;7.33;;;22.00;1.00;;;;;;5008169;28;20241;-87
2021/09/12 11:47:18;;;;;;;12.50;7.60;;;22.00;1.00;;;;;;5006823;28;20235;-88
2021/09/12 11:49:56;;;;;;;10.10;7.33;;;21.80;1.00;;;;;;5002126;28;20185;-87
2021/09/12 11:52:33;;;;;;;10.37;7.70;;;21.90;1.00;;;;;;5002793;28;20316;-88
2021/09/12 11:55:02;;;;;;;11.17;7.90;;;21.70;1.00;;;;;;5020162;28;20174;-86
2021/09/12 11:57:29;;;;;;;9.97;7.40;;;21.70;1.00;;;;;;5006554;28;20169;-87
2021/09/12 11:59:55;;;;;;;9.53;6.70;;;21.70;1.00;;;;;;5022006;28;20175;-87
2021/09/12 12:02:23;;;;;;;9.33;7.10;;;21.90;1.00;;;;;;5031257;28;20192;-86
2021/09/12 12:04:51;;;;;;;11.93;7.80;;;22.00;1.00;;;;;;5024355;28;20220;-88
2021/09/12 12:07:19;;;;;;;9.43;7.90;;;22.10;1.00;;;;;;5002215;28;20664;-87
2021/09/12 12:09:47;;;;;;;10.33;7.43;;;21.70;1.00;;;;;;4999966;28;20549;-86
2021/09/12 12:12:18;;;;;;;10.80;7.67;;;21.50;1.00;;;;;;4987236;28;20185;-87
2021/09/12 12:14:57;;;;;;;11.40;8.30;;;21.50;1.00;;;;;;5012574;28;20647;-86
2021/09/12 12:17:25;;;;;;;11.57;7.77;;;21.40;1.00;;;;;;4991846;28;20182;-87
2021/09/12 12:19:56;;;;;;;11.73;8.30;;;21.30;1.00;;;;;;5027043;28;20184;-85
2021/09/12 12:22:23;;;;;;;8.83;6.47;;;21.40;1.00;;;;;;5010008;28;20177;-87
2021/09/12 12:24:55;;;;;;;12.47;7.23;;;21.60;1.00;;;;;;5009619;28;20235;-86
2021/09/12 12:27:24;;;;;;;10.90;7.10;;;21.90;1.00;;;;;;4994731;28;20175;-86
2021/09/12 12:29:58;;;;;;;11.17;7.70;;;22.00;1.00;;;;;;5004213;28;20302;-87
2021/09/12 12:32:26;;;;;;;9.77;6.97;;;22.00;1.00;;;;;;4993534;28;20233;-86
2021/09/12 12:34:53;;;;;;;8.97;6.43;;;22.00;1.00;;;;;;4994526;28;20245;-86
2021/09/12 12:37:35;;;;;;;14.63;8.00;;;22.40;1.00;;;;;;4996043;28;20203;-86
2021/09/12 12:40:05;;;;;;;9.63;6.70;;;22.40;1.00;;;;;;4998291;28;20178;-86
2021/09/12 12:42:41;;;;;;;11.10;6.93;;;22.40;1.00;;;;;;5004126;28;20203;-87
2021/09/12 12:45:35;;;;;;;10.57;6.80;;;22.40;1.00;;;;;;5023004;28;20212;-85
2021/09/12 12:48:04;;;;;;;10.53;7.00;;;22.60;1.00;;;;;;5010396;28;20183;-86
2021/09/12 12:50:37;;;;;;;11.33;6.77;;;22.40;1.00;;;;;;5011581;28;20269;-85